Wawasan Ruby — 3EVU7 — position and weather

sailwx.info

Track history (hours):
 
Tides and Currents Weather Stations Pressure Air Temp Water Temp Dewpoint Dewpoint Depression Visibility Wind Speed Wind Dir Waves Ship Positions

Wawasan Ruby

Last reported at 2017-Mar-21 10:25 UTC. Time now 2017-Mar-27 18:28 UTC.
Position N 01°13' E 103°57'.

Length 146 m; draft 8.5 m.

Type: Tanker. MMSI: 355619000.

Date/timePositionNaut miles runAvg speedWind from/ knotsBaromVisibWave heightAir tempDewpointWater temp
2017-Mar-21 10:25N 01°13' E 103°57'910.8
2017-Mar-21 09:33N 01°10' E 103°48'1110.8
2017-Mar-21 08:33N 01°03' E 103°40'9 8.9
2017-Mar-21 07:33N 01°10' E 103°34'7 7.2
2017-Mar-21 06:33N 01°14' E 103°40'0 0.1
2017-Mar-21 05:31N 01°14' E 103°39'4 4.6
2017-Mar-21 04:33N 01°18' E 103°42'1 0.9
2017-Mar-21 03:28N 01°17' E 103°42'0 0.0
2017-Mar-21 02:25N 01°17' E 103°42'0 0.0
2017-Mar-21 01:31N 01°17' E 103°42'0 0.0
2017-Mar-21 00:31N 01°17' E 103°42'0 0.0
2017-Mar-20 23:31N 01°17' E 103°42'0 0.0
2017-Mar-20 22:31N 01°17' E 103°42'0 0.0
2017-Mar-20 21:31N 01°17' E 103°42'0 0.0
2017-Mar-20 20:19N 01°17' E 103°42'0 0.0
2017-Mar-20 19:28N 01°17' E 103°42'0 0.0
2017-Mar-20 18:22N 01°17' E 103°42'0 0.0
2017-Mar-20 17:31N 01°17' E 103°42'0 0.3
2017-Mar-20 16:33N 01°17' E 103°42'2 2.1
2017-Mar-20 15:34N 01°17' E 103°40'0 0.0
2017-Mar-20 14:29N 01°17' E 103°40'0 0.0
2017-Mar-20 13:32N 01°17' E 103°40'0 0.0
2017-Mar-20 12:26N 01°17' E 103°40'0 0.0
2017-Mar-20 11:20N 01°17' E 103°40'0 0.0
2017-Mar-20 10:29N 01°17' E 103°40'0 0.0
2017-Mar-20 09:32N 01°17' E 103°40'0 0.0
2017-Mar-20 08:32N 01°17' E 103°40'0 0.0
2017-Mar-20 07:32N 01°17' E 103°40'0 0.0
2017-Mar-20 06:32N 01°17' E 103°40'0 0.0
2017-Mar-20 05:32N 01°17' E 103°40'0 0.0
2017-Mar-20 04:32N 01°17' E 103°40'0 0.0
2017-Mar-20 03:32N 01°17' E 103°40'0 0.0
2017-Mar-20 02:32N 01°17' E 103°40'0 0.0
2017-Mar-20 01:32N 01°17' E 103°40'0 0.0
2017-Mar-20 00:32N 01°17' E 103°40'0 0.0
2017-Mar-19 23:32N 01°17' E 103°40'0 0.0
2017-Mar-19 22:32N 01°17' E 103°40'0 0.0
2017-Mar-19 21:32N 01°17' E 103°40'0 0.0
2017-Mar-19 20:29N 01°17' E 103°40'0 0.0
2017-Mar-19 19:32N 01°17' E 103°40'0 0.0
2017-Mar-19 18:32N 01°17' E 103°40'0 0.0
2017-Mar-19 17:32N 01°17' E 103°40'0 0.0
2017-Mar-19 16:23N 01°17' E 103°40'0 0.0
2017-Mar-19 15:14N 01°17' E 103°40'0 0.0
2017-Mar-19 14:32N 01°17' E 103°40'0 0.0
2017-Mar-19 13:32N 01°17' E 103°40'0 0.0
2017-Mar-19 12:32N 01°17' E 103°40'0 0.0
2017-Mar-19 11:32N 01°17' E 103°40'0 0.0
2017-Mar-19 10:29N 01°17' E 103°40'0 0.0
2017-Mar-19 09:29N 01°17' E 103°40'0 0.0
2017-Mar-19 08:29N 01°17' E 103°40'0 0.0
2017-Mar-19 07:32N 01°17' E 103°40'0 0.0
2017-Mar-19 06:32N 01°17' E 103°40'0 0.0
2017-Mar-19 05:29N 01°17' E 103°40'0 0.0
2017-Mar-19 04:29N 01°17' E 103°40'0 0.0
2017-Mar-19 03:29N 01°17' E 103°40'0 0.0
2017-Mar-19 02:32N 01°17' E 103°40'1 0.9
2017-Mar-19 01:34N 01°16' E 103°39'2 2.0
2017-Mar-19 00:33N 01°14' E 103°38'0 0.0
2017-Mar-18 23:33N 01°14' E 103°38'0 0.0
2017-Mar-18 22:33N 01°14' E 103°38'0 0.0
2017-Mar-18 21:33N 01°14' E 103°38'0 0.0
2017-Mar-18 20:33N 01°14' E 103°38'0 0.0
2017-Mar-18 19:28N 01°14' E 103°38'4 4.6
2017-Mar-18 18:33N 01°17' E 103°41'0 0.5
2017-Mar-18 17:30N 01°18' E 103°41'0 0.0
2017-Mar-18 16:33N 01°18' E 103°41'0 0.0
2017-Mar-18 15:33N 01°18' E 103°41'0 0.0
2017-Mar-18 14:33N 01°18' E 103°41'0 0.0
2017-Mar-18 13:30N 01°18' E 103°41'0 0.0
2017-Mar-18 12:30N 01°18' E 103°41'0 0.0
2017-Mar-18 11:33N 01°18' E 103°41'0 0.0
2017-Mar-18 10:24N 01°18' E 103°41'0 0.0
2017-Mar-18 09:33N 01°18' E 103°41'0 0.0
2017-Mar-18 08:33N 01°18' E 103°41'0 0.0
2017-Mar-18 07:33N 01°18' E 103°41'0 0.0
2017-Mar-18 06:33N 01°18' E 103°41'0 0.0
2017-Mar-18 05:33N 01°18' E 103°41'0 0.0
2017-Mar-18 04:33N 01°18' E 103°41'0 0.3
2017-Mar-18 03:33N 01°18' E 103°41'4 4.0
2017-Mar-18 02:29N 01°14' E 103°39'0 0.0
2017-Mar-18 01:32N 01°14' E 103°39'0 0.0
2017-Mar-18 00:32N 01°14' E 103°39'0 0.0
2017-Mar-17 23:20N 01°14' E 103°39'0 0.0
2017-Mar-17 22:32N 01°14' E 103°39'0 0.1
2017-Mar-17 21:29N 01°14' E 103°39'0 0.0
2017-Mar-17 20:32N 01°14' E 103°39'0 0.0
2017-Mar-17 19:29N 01°14' E 103°39'0 0.1
2017-Mar-17 18:32N 01°14' E 103°39'0 0.4
2017-Mar-17 17:33N 01°13' E 103°39'4 4.1
2017-Mar-17 16:33N 01°10' E 103°42'5 4.7
2017-Mar-17 15:33N 01°10' E 103°46'6 6.5
2017-Mar-17 14:33N 01°13' E 103°52'9 8.6
2017-Mar-17 13:33N 01°15' E 104°00'  
Track history (hours):
 
Tides and Currents Weather Stations Pressure Air Temp Water Temp Dewpoint Dewpoint Depression Visibility Wind Speed Wind Dir Waves Ship Positions

Wawasan Ruby

Last reported at 2017-Mar-21 10:25 UTC. Time now 2017-Mar-27 18:28 UTC.
Position N 01°13' E 103°57'.

Length 146 m; draft 8.5 m.

Type: Tanker. MMSI: 355619000.

Date/timePositionNaut miles runAvg speedWind from/ knotsBaromVisibWave heightAir tempDewpointWater temp
2017-Mar-21 10:25N 01°13' E 103°57'910.8
2017-Mar-21 09:33N 01°10' E 103°48'1110.8
2017-Mar-21 08:33N 01°03' E 103°40'9 8.9
2017-Mar-21 07:33N 01°10' E 103°34'7 7.2
2017-Mar-21 06:33N 01°14' E 103°40'0 0.1
2017-Mar-21 05:31N 01°14' E 103°39'4 4.6
2017-Mar-21 04:33N 01°18' E 103°42'1 0.9
2017-Mar-21 03:28N 01°17' E 103°42'0 0.0
2017-Mar-21 02:25N 01°17' E 103°42'0 0.0
2017-Mar-21 01:31N 01°17' E 103°42'0 0.0
2017-Mar-21 00:31N 01°17' E 103°42'0 0.0
2017-Mar-20 23:31N 01°17' E 103°42'0 0.0
2017-Mar-20 22:31N 01°17' E 103°42'0 0.0
2017-Mar-20 21:31N 01°17' E 103°42'0 0.0
2017-Mar-20 20:19N 01°17' E 103°42'0 0.0
2017-Mar-20 19:28N 01°17' E 103°42'0 0.0
2017-Mar-20 18:22N 01°17' E 103°42'0 0.0
2017-Mar-20 17:31N 01°17' E 103°42'0 0.3
2017-Mar-20 16:33N 01°17' E 103°42'2 2.1
2017-Mar-20 15:34N 01°17' E 103°40'0 0.0
2017-Mar-20 14:29N 01°17' E 103°40'0 0.0
2017-Mar-20 13:32N 01°17' E 103°40'0 0.0
2017-Mar-20 12:26N 01°17' E 103°40'0 0.0
2017-Mar-20 11:20N 01°17' E 103°40'0 0.0
2017-Mar-20 10:29N 01°17' E 103°40'0 0.0
2017-Mar-20 09:32N 01°17' E 103°40'0 0.0
2017-Mar-20 08:32N 01°17' E 103°40'0 0.0
2017-Mar-20 07:32N 01°17' E 103°40'0 0.0
2017-Mar-20 06:32N 01°17' E 103°40'0 0.0
2017-Mar-20 05:32N 01°17' E 103°40'0 0.0
2017-Mar-20 04:32N 01°17' E 103°40'0 0.0
2017-Mar-20 03:32N 01°17' E 103°40'0 0.0
2017-Mar-20 02:32N 01°17' E 103°40'0 0.0
2017-Mar-20 01:32N 01°17' E 103°40'0 0.0
2017-Mar-20 00:32N 01°17' E 103°40'0 0.0
2017-Mar-19 23:32N 01°17' E 103°40'0 0.0
2017-Mar-19 22:32N 01°17' E 103°40'0 0.0
2017-Mar-19 21:32N 01°17' E 103°40'0 0.0
2017-Mar-19 20:29N 01°17' E 103°40'0 0.0
2017-Mar-19 19:32N 01°17' E 103°40'0 0.0
2017-Mar-19 18:32N 01°17' E 103°40'0 0.0
2017-Mar-19 17:32N 01°17' E 103°40'0 0.0
2017-Mar-19 16:23N 01°17' E 103°40'0 0.0
2017-Mar-19 15:14N 01°17' E 103°40'0 0.0
2017-Mar-19 14:32N 01°17' E 103°40'0 0.0
2017-Mar-19 13:32N 01°17' E 103°40'0 0.0
2017-Mar-19 12:32N 01°17' E 103°40'0 0.0
2017-Mar-19 11:32N 01°17' E 103°40'0 0.0
2017-Mar-19 10:29N 01°17' E 103°40'0 0.0
2017-Mar-19 09:29N 01°17' E 103°40'0 0.0
2017-Mar-19 08:29N 01°17' E 103°40'0 0.0
2017-Mar-19 07:32N 01°17' E 103°40'0 0.0
2017-Mar-19 06:32N 01°17' E 103°40'0 0.0
2017-Mar-19 05:29N 01°17' E 103°40'0 0.0
2017-Mar-19 04:29N 01°17' E 103°40'0 0.0
2017-Mar-19 03:29N 01°17' E 103°40'0 0.0
2017-Mar-19 02:32N 01°17' E 103°40'1 0.9
2017-Mar-19 01:34N 01°16' E 103°39'2 2.0
2017-Mar-19 00:33N 01°14' E 103°38'0 0.0
2017-Mar-18 23:33N 01°14' E 103°38'0 0.0
2017-Mar-18 22:33N 01°14' E 103°38'0 0.0
2017-Mar-18 21:33N 01°14' E 103°38'0 0.0
2017-Mar-18 20:33N 01°14' E 103°38'0 0.0
2017-Mar-18 19:28N 01°14' E 103°38'4 4.6
2017-Mar-18 18:33N 01°17' E 103°41'0 0.5
2017-Mar-18 17:30N 01°18' E 103°41'0 0.0
2017-Mar-18 16:33N 01°18' E 103°41'0 0.0
2017-Mar-18 15:33N 01°18' E 103°41'0 0.0
2017-Mar-18 14:33N 01°18' E 103°41'0 0.0
2017-Mar-18 13:30N 01°18' E 103°41'0 0.0
2017-Mar-18 12:30N 01°18' E 103°41'0 0.0
2017-Mar-18 11:33N 01°18' E 103°41'0 0.0
2017-Mar-18 10:24N 01°18' E 103°41'0 0.0
2017-Mar-18 09:33N 01°18' E 103°41'0 0.0
2017-Mar-18 08:33N 01°18' E 103°41'0 0.0
2017-Mar-18 07:33N 01°18' E 103°41'0 0.0
2017-Mar-18 06:33N 01°18' E 103°41'0 0.0
2017-Mar-18 05:33N 01°18' E 103°41'0 0.0
2017-Mar-18 04:33N 01°18' E 103°41'0 0.3
2017-Mar-18 03:33N 01°18' E 103°41'4 4.0
2017-Mar-18 02:29N 01°14' E 103°39'0 0.0
2017-Mar-18 01:32N 01°14' E 103°39'0 0.0
2017-Mar-18 00:32N 01°14' E 103°39'0 0.0
2017-Mar-17 23:20N 01°14' E 103°39'0 0.0
2017-Mar-17 22:32N 01°14' E 103°39'0 0.1
2017-Mar-17 21:29N 01°14' E 103°39'0 0.0
2017-Mar-17 20:32N 01°14' E 103°39'0 0.0
2017-Mar-17 19:29N 01°14' E 103°39'0 0.1
2017-Mar-17 18:32N 01°14' E 103°39'0 0.4
2017-Mar-17 17:33N 01°13' E 103°39'4 4.1
2017-Mar-17 16:33N 01°10' E 103°42'5 4.7
2017-Mar-17 15:33N 01°10' E 103°46'6 6.5
2017-Mar-17 14:33N 01°13' E 103°52'9 8.6
2017-Mar-17 13:33N 01°15' E 104°00'  

Dump ship's entire track history